Time;durP1;ratioP1;P1;durP2;ratioP2;P2;SDS_P1;SDS_P2;PMS_P1;PMS_P2;Temp;Humidity;BMP_temperature;BMP_pressure;BME280_temperature;BME280_humidity;BME280_pressure;Samples;Min_cycle;Max_cycle;Signal;HPM_P1;HPM_P2
2021/06/12 00:01:29;;;;;;;;;;;21.00;48.30;;;;;;6253902;23;19904;-84
2021/06/12 00:03:54;;;;;;;;;;;21.00;48.40;;;;;;6254460;23;19960;-83
2021/06/12 00:06:25;;;;;;;;;;;20.90;48.30;;;;;;6253904;22;19908;-84
2021/06/12 00:08:50;;;;;;;;;;;20.90;48.40;;;;;;6252572;23;19938;-84
2021/06/12 00:11:16;;;;;;;;;;;20.90;48.50;;;;;;6254959;23;19904;-84
2021/06/12 00:13:44;;;;;;;;;;;20.90;48.60;;;;;;6254125;23;19908;-84
2021/06/12 00:16:09;;;;;;;;;;;21.00;48.60;;;;;;6254160;22;19911;-85
2021/06/12 00:18:35;;;;;;;;;;;21.00;48.60;;;;;;6253570;23;19907;-84
2021/06/12 00:21:02;;;;;;;;;;;21.00;48.60;;;;;;6253622;22;20322;-84
2021/06/12 00:23:27;;;;;;;;;;;21.10;48.60;;;;;;6253616;23;19910;-84
2021/06/12 00:25:53;;;;;;;;;;;21.10;48.70;;;;;;6254320;22;20241;-84
2021/06/12 00:28:18;;;;;;;;;;;21.00;48.60;;;;;;6255122;23;19958;-84
2021/06/12 00:30:44;;;;;;;;;;;21.00;48.60;;;;;;6252525;23;19907;-84
2021/06/12 00:33:09;;;;;;;;;;;21.00;48.60;;;;;;6254186;23;19903;-84
2021/06/12 00:35:35;;;;;;;;;;;21.00;48.60;;;;;;6254253;22;19908;-84
2021/06/12 00:38:00;;;;;;;;;;;21.00;48.70;;;;;;6253925;22;20315;-84
2021/06/12 00:40:28;;;;;;;;;;;21.00;48.80;;;;;;6254861;23;19911;-84
2021/06/12 00:42:54;;;;;;;;;;;20.90;48.90;;;;;;6254597;22;19904;-84
2021/06/12 00:45:21;;;;;;;;;;;20.90;49.00;;;;;;6254800;22;19927;-84
2021/06/12 00:47:47;;;;;;;;;;;20.80;49.00;;;;;;6254399;23;19948;-84
2021/06/12 00:50:13;;;;;;;;;;;20.70;49.10;;;;;;6255585;22;19903;-84
2021/06/12 00:52:41;;;;;;;;;;;20.70;49.20;;;;;;6263869;23;19910;-83
2021/06/12 00:55:08;;;;;;;;;;;20.60;49.20;;;;;;6262963;22;19926;-84
2021/06/12 00:57:34;;;;;;;;;;;20.60;49.80;;;;;;6252387;23;19904;-85
2021/06/12 01:00:02;;;;;;;;;;;20.60;49.40;;;;;;6253694;22;19904;-84
2021/06/12 01:02:30;;;;;;;;;;;20.50;49.40;;;;;;6251601;23;19935;-84
2021/06/12 01:04:56;;;;;;;;;;;20.50;49.40;;;;;;6253582;22;19908;-84
2021/06/12 01:07:21;;;;;;;;;;;20.40;49.50;;;;;;6254241;22;20274;-84
2021/06/12 01:09:47;;;;;;;;;;;20.40;49.60;;;;;;6253865;22;19927;-85
2021/06/12 01:12:38;;;;;;;;;;;20.40;49.80;;;;;;6251563;23;19914;-84
2021/06/12 01:15:05;;;;;;;;;;;20.30;49.80;;;;;;6251976;22;19903;-84
2021/06/12 01:17:33;;;;;;;;;;;20.20;49.90;;;;;;6253940;22;19903;-84
2021/06/12 01:20:05;;;;;;;;;;;20.20;50.10;;;;;;6251382;23;19968;-84
2021/06/12 01:22:39;;;;;;;;;;;20.20;50.10;;;;;;6253430;22;19903;-84
2021/06/12 01:25:06;;;;;;;;;;;20.10;50.20;;;;;;6253734;22;19911;-84
2021/06/12 01:27:52;;;;;;;;;;;20.10;50.30;;;;;;6252059;23;20265;-83
2021/06/12 01:30:20;;;;;;;;;;;20.10;50.40;;;;;;6253559;22;19903;-84
2021/06/12 01:32:47;;;;;;;;;;;20.10;50.40;;;;;;6251950;23;19923;-84
2021/06/12 01:35:31;;;;;;;;;;;20.20;50.50;;;;;;6253100;22;19904;-84
2021/06/12 01:37:57;;;;;;;;;;;20.20;50.60;;;;;;6253496;22;19911;-84
2021/06/12 01:40:28;;;;;;;;;;;20.30;50.60;;;;;;6251876;23;19904;-84
2021/06/12 01:42:54;;;;;;;;;;;20.30;50.60;;;;;;6252856;22;19926;-84
2021/06/12 01:45:23;;;;;;;;;;;20.30;50.60;;;;;;6252750;22;19919;-84
2021/06/12 01:47:51;;;;;;;;;;;20.30;50.60;;;;;;6250670;23;19922;-84
2021/06/12 01:50:19;;;;;;;;;;;20.40;50.70;;;;;;6251751;23;19910;-83
2021/06/12 01:52:51;;;;;;;;;;;20.40;50.80;;;;;;6253605;22;20257;-84
2021/06/12 01:55:19;;;;;;;;;;;20.40;50.90;;;;;;6253094;22;19910;-84
2021/06/12 01:57:46;;;;;;;;;;;20.40;50.90;;;;;;6253053;22;19908;-84
2021/06/12 02:00:12;;;;;;;;;;;20.40;51.00;;;;;;6253402;22;19903;-84
2021/06/12 02:02:38;;;;;;;;;;;20.40;51.00;;;;;;6253249;22;19951;-84
2021/06/12 02:05:04;;;;;;;;;;;20.40;51.10;;;;;;6252041;22;19904;-84
2021/06/12 02:07:30;;;;;;;;;;;20.30;51.00;;;;;;6252867;22;19911;-84
2021/06/12 02:09:56;;;;;;;;;;;20.30;51.10;;;;;;6253532;22;19910;-84
2021/06/12 02:12:24;;;;;;;;;;;20.30;51.20;;;;;;6253887;22;19983;-84
2021/06/12 02:14:50;;;;;;;;;;;20.30;51.20;;;;;;6251075;22;19935;-84
2021/06/12 02:17:16;;;;;;;;;;;20.30;51.30;;;;;;6252146;23;19930;-83
2021/06/12 02:19:44;;;;;;;;;;;20.30;51.30;;;;;;6252860;22;19903;-84
2021/06/12 02:22:10;;;;;;;;;;;20.30;51.30;;;;;;6251923;23;19910;-84
2021/06/12 02:24:35;;;;;;;;;;;20.30;51.30;;;;;;6251321;23;19907;-84
2021/06/12 02:27:02;;;;;;;;;;;20.30;51.50;;;;;;6252403;22;20290;-84
2021/06/12 02:29:28;;;;;;;;;;;20.30;51.50;;;;;;6250964;23;19904;-84
2021/06/12 02:31:57;;;;;;;;;;;20.30;51.60;;;;;;6253634;22;19926;-84
2021/06/12 02:34:22;;;;;;;;;;;20.30;51.60;;;;;;6252736;22;19923;-84
2021/06/12 02:36:48;;;;;;;;;;;20.30;51.60;;;;;;6252918;22;19904;-84
2021/06/12 02:39:15;;;;;;;;;;;20.30;51.60;;;;;;6253389;22;19914;-85
2021/06/12 02:41:43;;;;;;;;;;;20.30;51.60;;;;;;6254594;23;19903;-85
2021/06/12 02:44:11;;;;;;;;;;;20.40;51.70;;;;;;6251618;23;19904;-85
2021/06/12 02:46:40;;;;;;;;;;;20.40;51.80;;;;;;6255380;22;19908;-85
2021/06/12 02:49:07;;;;;;;;;;;20.40;51.80;;;;;;6253920;22;20119;-85
2021/06/12 02:51:33;;;;;;;;;;;20.50;51.90;;;;;;6253572;23;19904;-85
2021/06/12 02:54:01;;;;;;;;;;;20.50;51.90;;;;;;6252991;23;19904;-84
2021/06/12 02:56:30;;;;;;;;;;;20.50;51.80;;;;;;6250622;22;19908;-85
2021/06/12 02:58:59;;;;;;;;;;;20.50;51.90;;;;;;6252679;22;20353;-85
2021/06/12 03:01:25;;;;;;;;;;;20.50;51.90;;;;;;6253191;23;19998;-85
2021/06/12 03:03:52;;;;;;;;;;;20.50;51.90;;;;;;6252049;23;19907;-85
2021/06/12 03:06:18;;;;;;;;;;;20.40;51.90;;;;;;6252443;22;19931;-84
2021/06/12 03:08:44;;;;;;;;;;;20.40;52.00;;;;;;6254665;22;19903;-85
2021/06/12 03:11:11;;;;;;;;;;;20.40;52.00;;;;;;6255105;22;19933;-85
2021/06/12 03:13:41;;;;;;;;;;;20.40;52.10;;;;;;6253926;23;19904;-85
2021/06/12 03:16:07;;;;;;;;;;;20.30;52.10;;;;;;6253557;22;20314;-85
2021/06/12 03:18:37;;;;;;;;;;;20.30;52.20;;;;;;6254711;22;19930;-85
2021/06/12 03:21:03;;;;;;;;;;;20.30;52.30;;;;;;6255235;22;19903;-85
2021/06/12 03:23:30;;;;;;;;;;;20.30;52.30;;;;;;6255860;22;19908;-85
2021/06/12 03:25:56;;;;;;;;;;;20.20;52.40;;;;;;6253995;22;19927;-85
2021/06/12 03:28:21;;;;;;;;;;;20.20;52.50;;;;;;6254205;23;19929;-85
2021/06/12 03:30:48;;;;;;;;;;;20.10;52.50;;;;;;6253604;23;19904;-85
2021/06/12 03:33:14;;;;;;;;;;;20.10;52.70;;;;;;6253673;23;19904;-86
2021/06/12 03:35:39;;;;;;;;;;;20.10;52.80;;;;;;6255561;22;19935;-84
2021/06/12 03:38:05;;;;;;;;;;;20.00;52.70;;;;;;6254848;22;19919;-84
2021/06/12 03:40:35;;;;;;;;;;;20.00;52.80;;;;;;6254381;22;19944;-85
2021/06/12 03:43:01;;;;;;;;;;;20.00;52.90;;;;;;6254543;22;19903;-85
2021/06/12 03:45:27;;;;;;;;;;;19.90;53.00;;;;;;6252838;22;20318;-85
2021/06/12 03:47:53;;;;;;;;;;;19.90;53.10;;;;;;6253018;22;19943;-84
2021/06/12 03:50:19;;;;;;;;;;;19.90;53.20;;;;;;6253776;22;19911;-84
2021/06/12 03:52:45;;;;;;;;;;;19.80;53.20;;;;;;6252260;23;20249;-84
2021/06/12 03:55:11;;;;;;;;;;;19.80;53.30;;;;;;6266784;22;19934;-83
2021/06/12 03:57:37;;;;;;;;;;;19.80;53.40;;;;;;6261595;22;19903;-85
2021/06/12 04:00:06;;;;;;;;;;;19.80;53.50;;;;;;6254588;23;19904;-84
2021/06/12 04:02:31;;;;;;;;;;;19.80;53.50;;;;;;6253912;23;19908;-84
2021/06/12 04:04:57;;;;;;;;;;;19.90;53.60;;;;;;6256064;22;19908;-85
2021/06/12 04:07:24;;;;;;;;;;;19.90;53.60;;;;;;6254535;22;20630;-84
2021/06/12 04:09:49;;;;;;;;;;;19.90;53.60;;;;;;6255473;22;19926;-84
2021/06/12 04:12:18;;;;;;;;;;;19.90;53.60;;;;;;6253584;23;19903;-84
2021/06/12 04:14:43;;;;;;;;;;;20.00;53.70;;;;;;6254008;22;19904;-84
2021/06/12 04:17:09;;;;;;;;;;;20.00;53.80;;;;;;6254152;23;19910;-84
2021/06/12 04:19:37;;;;;;;;;;;20.00;54.10;;;;;;6254029;23;19907;-84
2021/06/12 04:22:02;;;;;;;;;;;19.90;54.20;;;;;;6253549;23;20336;-84
2021/06/12 04:24:28;;;;;;;;;;;20.00;54.40;;;;;;6253521;23;19904;-84
2021/06/12 04:26:53;;;;;;;;;;;19.90;54.50;;;;;;6254832;22;20183;-84
2021/06/12 04:29:19;;;;;;;;;;;20.00;54.60;;;;;;6255532;23;19910;-84
2021/06/12 04:31:51;;;;;;;;;;;20.00;54.80;;;;;;6255076;22;20292;-84
2021/06/12 04:34:19;;;;;;;;;;;20.00;54.80;;;;;;6253470;23;20219;-85
2021/06/12 04:36:44;;;;;;;;;;;20.00;55.00;;;;;;6252728;22;19908;-84
2021/06/12 04:39:10;;;;;;;;;;;20.00;55.10;;;;;;6255803;22;20324;-84
2021/06/12 04:41:36;;;;;;;;;;;20.00;55.30;;;;;;6256071;22;19935;-86
2021/06/12 04:44:02;;;;;;;;;;;20.00;55.40;;;;;;6256009;22;19910;-84
2021/06/12 04:46:27;;;;;;;;;;;20.10;55.50;;;;;;6253106;22;19951;-84
2021/06/12 04:48:53;;;;;;;;;;;20.10;55.50;;;;;;6253544;23;19908;-84
2021/06/12 04:51:18;;;;;;;;;;;20.10;55.50;;;;;;6255200;22;19926;-85
2021/06/12 04:53:44;;;;;;;;;;;20.20;55.70;;;;;;6255392;23;19907;-84
2021/06/12 04:56:09;;;;;;;;;;;20.20;55.70;;;;;;6256130;22;20538;-84
2021/06/12 04:58:35;;;;;;;;;;;20.30;55.80;;;;;;6253154;23;19910;-84
2021/06/12 05:01:00;;;;;;;;;;;20.30;55.70;;;;;;6255231;23;19910;-84
2021/06/12 05:03:26;;;;;;;;;;;20.40;55.80;;;;;;6255001;23;19907;-85
2021/06/12 05:05:54;;;;;;;;;;;20.50;56.00;;;;;;6254617;22;20276;-84
2021/06/12 05:08:20;;;;;;;;;;;20.60;56.10;;;;;;6254326;22;19949;-85
2021/06/12 05:10:45;;;;;;;;;;;20.80;56.20;;;;;;6254386;23;19951;-84
2021/06/12 05:13:13;;;;;;;;;;;20.90;56.10;;;;;;6254334;23;19910;-84
2021/06/12 05:15:40;;;;;;;;;;;21.00;56.20;;;;;;6255350;22;19907;-84
2021/06/12 05:18:07;;;;;;;;;;;21.20;56.40;;;;;;6255736;22;19951;-81
2021/06/12 05:20:35;;;;;;;;;;;21.30;56.40;;;;;;6262261;23;20257;-82
2021/06/12 05:23:01;;;;;;;;;;;21.40;56.50;;;;;;6264774;23;20065;-83
2021/06/12 05:25:26;;;;;;;;;;;21.40;56.60;;;;;;6264948;23;19904;-82
2021/06/12 05:27:52;;;;;;;;;;;21.40;56.80;;;;;;6264954;23;19931;-81
2021/06/12 05:30:17;;;;;;;;;;;21.40;57.00;;;;;;6264358;23;19908;-82
2021/06/12 05:32:43;;;;;;;;;;;21.60;57.30;;;;;;6265637;22;19904;-82
2021/06/12 05:35:09;;;;;;;;;;;21.80;57.20;;;;;;6263248;23;19910;-82
2021/06/12 05:37:35;;;;;;;;;;;22.10;57.10;;;;;;6266220;22;19927;-81
2021/06/12 05:40:01;;;;;;;;;;;22.40;56.80;;;;;;6265626;22;19945;-83
2021/06/12 05:42:27;;;;;;;;;;;22.80;56.40;;;;;;6262201;22;19903;-83
2021/06/12 05:44:52;;;;;;;;;;;23.30;56.00;;;;;;6262091;23;19947;-83
2021/06/12 05:47:18;;;;;;;;;;;23.60;55.70;;;;;;6260549;23;19912;-83
2021/06/12 05:49:43;;;;;;;;;;;23.90;55.30;;;;;;6261660;22;19903;-83
2021/06/12 05:52:08;;;;;;;;;;;24.10;55.10;;;;;;6261534;23;19903;-83
2021/06/12 05:54:34;;;;;;;;;;;24.20;55.00;;;;;;6261606;23;20322;-84
2021/06/12 05:56:59;;;;;;;;;;;24.20;54.90;;;;;;6261704;23;19911;-84
2021/06/12 05:59:25;;;;;;;;;;;24.30;54.90;;;;;;6261228;22;19910;-83
2021/06/12 06:01:50;;;;;;;;;;;24.50;54.80;;;;;;6261390;23;19904;-83
2021/06/12 06:04:16;;;;;;;;;;;24.80;54.60;;;;;;6258579;23;19934;-84
2021/06/12 06:06:41;;;;;;;;;;;25.20;54.20;;;;;;6258752;23;19908;-84
2021/06/12 06:09:07;;;;;;;;;;;25.60;53.60;;;;;;6260890;22;19907;-84
2021/06/12 06:11:32;;;;;;;;;;;25.90;53.20;;;;;;6261729;23;19904;-84
2021/06/12 06:13:58;;;;;;;;;;;26.10;52.80;;;;;;6258893;23;20344;-83
2021/06/12 06:16:24;;;;;;;;;;;26.40;52.80;;;;;;6260671;23;19904;-83
2021/06/12 06:18:49;;;;;;;;;;;27.20;51.30;;;;;;6259104;22;19968;-84
2021/06/12 06:21:16;;;;;;;;;;;26.90;51.30;;;;;;6260608;23;19942;-84
2021/06/12 06:23:42;;;;;;;;;;;26.10;52.10;;;;;;6260012;22;19903;-84
2021/06/12 06:26:07;;;;;;;;;;;25.50;53.20;;;;;;6259737;23;19959;-84
2021/06/12 06:28:33;;;;;;;;;;;25.10;53.80;;;;;;6259013;22;19992;-84
2021/06/12 06:30:58;;;;;;;;;;;24.80;54.20;;;;;;6257860;23;19903;-84
2021/06/12 06:33:25;;;;;;;;;;;24.50;54.70;;;;;;6258765;22;19999;-83
2021/06/12 06:35:50;;;;;;;;;;;24.20;55.00;;;;;;6259326;22;19923;-84
2021/06/12 06:38:16;;;;;;;;;;;24.00;55.40;;;;;;6258460;22;20330;-84
2021/06/12 06:40:41;;;;;;;;;;;24.00;55.50;;;;;;6259395;23;19910;-83
2021/06/12 06:43:11;;;;;;;;;;;24.00;55.60;;;;;;6257243;23;20325;-84
2021/06/12 06:45:36;;;;;;;;;;;23.80;55.70;;;;;;6260448;22;19903;-84
2021/06/12 06:48:02;;;;;;;;;;;23.80;55.90;;;;;;6259458;22;19907;-84
2021/06/12 06:50:28;;;;;;;;;;;23.70;56.00;;;;;;6258823;22;19915;-84
2021/06/12 06:52:53;;;;;;;;;;;23.60;56.10;;;;;;6259523;23;20226;-84
2021/06/12 06:55:19;;;;;;;;;;;24.50;56.10;;;;;;6259593;23;19951;-84
2021/06/12 06:57:44;;;;;;;;;;;25.70;53.90;;;;;;6258381;22;19946;-84
2021/06/12 07:00:10;;;;;;;;;;;25.60;53.60;;;;;;6259700;22;20334;-85
2021/06/12 07:02:35;;;;;;;;;;;25.50;53.80;;;;;;6259576;22;19903;-84
2021/06/12 07:05:01;;;;;;;;;;;25.40;53.80;;;;;;6260069;23;19907;-84
2021/06/12 07:07:26;;;;;;;;;;;25.20;54.20;;;;;;6259585;23;19919;-84
2021/06/12 07:09:53;;;;;;;;;;;25.00;54.50;;;;;;6258379;22;19904;-85
2021/06/12 07:12:19;;;;;;;;;;;24.70;54.90;;;;;;6259305;22;19946;-84
2021/06/12 07:14:44;;;;;;;;;;;24.50;55.10;;;;;;6260245;22;19903;-83
2021/06/12 07:17:10;;;;;;;;;;;24.20;55.50;;;;;;6261031;22;19904;-84
2021/06/12 07:19:36;;;;;;;;;;;23.80;55.90;;;;;;6258170;22;19950;-84
2021/06/12 07:22:02;;;;;;;;;;;23.60;56.40;;;;;;6258534;23;19980;-84
2021/06/12 07:24:27;;;;;;;;;;;23.30;56.60;;;;;;6259513;22;19904;-84
2021/06/12 07:26:53;;;;;;;;;;;23.00;57.00;;;;;;6258566;23;19930;-85
2021/06/12 07:29:18;;;;;;;;;;;22.80;57.40;;;;;;6258525;22;19904;-84
2021/06/12 07:31:44;;;;;;;;;;;22.70;57.70;;;;;;6266510;23;19911;-84
2021/06/12 07:34:10;;;;;;;;;;;22.60;57.80;;;;;;6270791;23;19895;-84
2021/06/12 07:36:36;;;;;;;;;;;22.60;58.00;;;;;;6265607;22;19903;-84
2021/06/12 07:39:02;;;;;;;;;;;22.60;58.00;;;;;;6261335;22;19911;-85
2021/06/12 07:41:28;;;;;;;;;;;22.60;58.10;;;;;;6259299;22;19907;-84
2021/06/12 07:43:54;;;;;;;;;;;22.60;58.20;;;;;;6260970;22;20310;-84
2021/06/12 07:46:20;;;;;;;;;;;22.60;58.30;;;;;;6261731;22;19907;-84
2021/06/12 07:48:45;;;;;;;;;;;22.60;58.30;;;;;;6258357;22;20329;-84
2021/06/12 07:51:11;;;;;;;;;;;22.60;58.40;;;;;;6260051;23;19925;-84
2021/06/12 07:53:36;;;;;;;;;;;22.50;58.50;;;;;;6260822;23;19987;-84
2021/06/12 07:56:02;;;;;;;;;;;22.40;58.80;;;;;;6259927;23;19927;-84
2021/06/12 07:58:27;;;;;;;;;;;22.30;59.10;;;;;;6258435;22;19950;-83
2021/06/12 08:01:00;;;;;;;;;;;22.20;59.50;;;;;;6258217;23;19911;-85
2021/06/12 08:03:28;;;;;;;;;;;22.20;59.80;;;;;;6258474;23;19950;-85
2021/06/12 08:05:53;;;;;;;;;;;22.20;60.20;;;;;;6259571;22;19911;-85
2021/06/12 08:08:19;;;;;;;;;;;22.00;60.30;;;;;;6258519;22;19903;-84
2021/06/12 08:10:47;;;;;;;;;;;21.80;60.90;;;;;;6257672;23;19908;-85
2021/06/12 08:13:12;;;;;;;;;;;21.60;61.40;;;;;;6257232;23;19904;-85
2021/06/12 08:15:38;;;;;;;;;;;21.40;61.90;;;;;;6259473;22;19926;-84
2021/06/12 08:18:04;;;;;;;;;;;21.20;62.40;;;;;;6256883;22;19914;-85
2021/06/12 08:20:29;;;;;;;;;;;21.10;63.10;;;;;;6256793;23;19926;-84
2021/06/12 08:22:58;;;;;;;;;;;21.00;63.60;;;;;;6255648;23;20295;-84
2021/06/12 08:25:31;;;;;;;;;;;20.90;64.30;;;;;;6254569;23;19904;-84
2021/06/12 08:28:04;;;;;;;;;;;20.80;64.70;;;;;;6256217;22;19908;-84
2021/06/12 08:30:34;;;;;;;;;;;20.80;65.10;;;;;;6255795;22;19927;-84
2021/06/12 08:33:00;;;;;;;;;;;20.70;65.40;;;;;;6254595;23;20303;-84
2021/06/12 08:35:25;;;;;;;;;;;20.60;65.80;;;;;;6256210;22;19903;-84
2021/06/12 08:37:51;;;;;;;;;;;20.50;66.20;;;;;;6256674;22;20296;-84
2021/06/12 08:40:16;;;;;;;;;;;20.40;66.60;;;;;;6256092;23;19939;-84
2021/06/12 08:42:42;;;;;;;;;;;20.40;67.00;;;;;;6257304;22;19903;-84
2021/06/12 08:45:08;;;;;;;;;;;20.40;67.20;;;;;;6257029;22;19904;-84
2021/06/12 08:47:36;;;;;;;;;;;20.40;67.30;;;;;;6253997;23;19931;-84
2021/06/12 08:50:06;;;;;;;;;;;20.40;67.70;;;;;;6255437;22;19947;-84
2021/06/12 08:52:32;;;;;;;;;;;20.50;68.00;;;;;;6257015;22;19904;-84
2021/06/12 08:54:58;;;;;;;;;;;20.60;68.00;;;;;;6254979;23;19910;-84
2021/06/12 08:57:23;;;;;;;;;;;20.80;68.00;;;;;;6251545;22;20338;-84
2021/06/12 08:59:49;;;;;;;;;;;20.90;68.00;;;;;;6253006;22;20348;-84
2021/06/12 09:02:17;;;;;;;;;;;21.00;68.10;;;;;;6255036;22;20254;-84
2021/06/12 09:04:44;;;;;;;;;;;21.20;68.30;;;;;;6255181;22;19903;-84
2021/06/12 09:07:28;;;;;;;;;;;21.40;68.20;;;;;;6258483;22;19912;-84
2021/06/12 09:09:54;;;;;;;;;;;21.80;68.10;;;;;;6255749;22;19919;-85
2021/06/12 09:12:20;;;;;;;;;;;23.20;67.30;;;;;;6254890;23;19904;-85
2021/06/12 09:15:06;;;;;;;;;;;25.10;63.80;;;;;;6258824;23;20338;-84
2021/06/12 09:17:42;;;;;;;;;;;26.30;60.00;;;;;;6258889;22;19904;-84
2021/06/12 09:20:08;;;;;;;;;;;27.40;58.70;;;;;;6260536;22;19955;-85
2021/06/12 09:22:34;;;;;;;;;;;27.90;57.60;;;;;;6261417;22;20408;-84
2021/06/12 09:25:00;;;;;;;;;;;28.20;58.00;;;;;;6259572;22;19952;-84
2021/06/12 09:27:25;;;;;;;;;;;28.80;56.20;;;;;;6260101;22;19938;-84
2021/06/12 09:29:51;;;;;;;;;;;28.40;56.20;;;;;;6258785;22;19911;-85
2021/06/12 09:32:24;;;;;;;;;;;28.30;56.40;;;;;;6259168;23;19908;-85
2021/06/12 09:34:51;;;;;;;;;;;27.80;56.60;;;;;;6257961;23;19911;-84
2021/06/12 09:37:19;;;;;;;;;;;27.10;57.50;;;;;;6258369;22;19911;-84
2021/06/12 09:40:03;;;;;;;;;;;26.50;58.20;;;;;;6260592;22;20389;-85
2021/06/12 09:42:35;;;;;;;;;;;26.20;59.00;;;;;;6258662;23;19919;-84
2021/06/12 09:45:03;;;;;;;;;;;26.00;59.20;;;;;;6255700;23;20223;-84
2021/06/12 09:47:29;;;;;;;;;;;25.80;59.70;;;;;;6253951;22;19908;-85
2021/06/12 09:49:59;;;;;;;;;;;26.00;59.80;;;;;;6261317;22;19927;-84
2021/06/12 09:52:24;;;;;;;;;;;26.10;59.40;;;;;;6256735;22;19947;-85
2021/06/12 09:54:51;;;;;;;;;;;26.10;59.50;;;;;;6256410;23;19904;-84
2021/06/12 09:57:18;;;;;;;;;;;26.00;59.30;;;;;;6253538;23;19912;-84
2021/06/12 09:59:43;;;;;;;;;;;25.80;59.60;;;;;;6253670;22;19903;-84
2021/06/12 10:02:09;;;;;;;;;;;25.40;60.10;;;;;;6256190;23;19911;-86
2021/06/12 10:04:35;;;;;;;;;;;25.20;60.90;;;;;;6255824;22;19914;-84
2021/06/12 10:07:00;;;;;;;;;;;25.10;61.30;;;;;;6258847;23;19927;-84
2021/06/12 10:09:26;;;;;;;;;;;25.30;61.30;;;;;;6258020;22;19930;-85
2021/06/12 10:11:57;;;;;;;;;;;25.50;61.00;;;;;;6259632;22;19968;-85
2021/06/12 10:14:23;;;;;;;;;;;25.70;60.50;;;;;;6260312;22;19904;-85
2021/06/12 10:16:50;;;;;;;;;;;25.40;60.70;;;;;;6257951;23;19903;-84
2021/06/12 10:19:19;;;;;;;;;;;25.20;61.40;;;;;;6259272;22;20289;-85
2021/06/12 10:21:46;;;;;;;;;;;24.80;61.90;;;;;;6258745;23;19927;-85
2021/06/12 10:24:12;;;;;;;;;;;24.50;62.80;;;;;;6260268;23;20238;-84
2021/06/12 10:26:37;;;;;;;;;;;24.20;63.50;;;;;;6262156;22;19913;-86
2021/06/12 10:29:05;;;;;;;;;;;24.10;64.10;;;;;;6263281;22;19904;-84
2021/06/12 10:31:34;;;;;;;;;;;24.30;64.40;;;;;;6261075;23;19903;-86
2021/06/12 10:34:01;;;;;;;;;;;24.50;63.90;;;;;;6262312;22;19914;-85
2021/06/12 10:36:33;;;;;;;;;;;24.90;63.40;;;;;;6259179;23;19908;-85
2021/06/12 10:38:59;;;;;;;;;;;25.70;62.20;;;;;;6259272;22;19951;-84
2021/06/12 10:41:26;;;;;;;;;;;26.50;60.60;;;;;;6259673;23;19911;-84
2021/06/12 10:43:53;;;;;;;;;;;26.90;59.70;;;;;;6261819;22;19903;-86
2021/06/12 10:46:21;;;;;;;;;;;27.10;59.20;;;;;;6260063;23;19908;-83
2021/06/12 10:48:52;;;;;;;;;;;27.30;58.80;;;;;;6261505;22;19951;-85
2021/06/12 10:51:27;;;;;;;;;;;27.60;58.50;;;;;;6260836;23;20251;-86
2021/06/12 10:54:11;;;;;;;;;;;27.90;57.80;;;;;;6261673;23;19904;-86
2021/06/12 10:56:37;;;;;;;;;;;27.90;57.60;;;;;;6260928;23;20365;-85
2021/06/12 10:59:04;;;;;;;;;;;27.90;57.50;;;;;;6263950;22;19891;-85
2021/06/12 11:01:30;;;;;;;;;;;28.10;57.30;;;;;;6269194;22;19955;-87
2021/06/12 11:06:42;;;;;;;;;;;29.10;56.10;;;;;;6262566;22;19914;-84
2021/06/12 11:09:28;;;;;;;;;;;29.00;55.70;;;;;;6262193;22;19930;-85
2021/06/12 11:11:55;;;;;;;;;;;28.60;55.20;;;;;;6241848;22;19904;-85
2021/06/12 11:14:20;;;;;;;;;;;28.20;55.60;;;;;;6262897;22;19907;-85
2021/06/12 11:19:34;;;;;;;;;;;27.60;56.20;;;;;;6239184;22;19994;-81
2021/06/12 11:22:18;;;;;;;;;;;27.80;56.30;;;;;;6260541;23;19904;-81
2021/06/12 11:24:44;;;;;;;;;;;27.90;56.00;;;;;;6260912;23;19951;-81
2021/06/12 11:27:25;;;;;;;;;;;28.60;55.90;;;;;;6259689;23;19907;-83
2021/06/12 11:30:09;;;;;;;;;;;29.90;54.80;;;;;;6262074;22;19955;-82
2021/06/12 11:32:35;;;;;;;;;;;31.40;53.00;;;;;;6260906;23;20346;-83
2021/06/12 11:35:00;;;;;;;;;;;32.10;50.90;;;;;;6260360;23;19904;-82
2021/06/12 11:37:28;;;;;;;;;;;32.40;50.10;;;;;;6259678;23;19903;-83
2021/06/12 11:39:56;;;;;;;;;;;32.90;48.60;;;;;;6257805;22;19907;-84
2021/06/12 11:42:22;;;;;;;;;;;33.50;47.40;;;;;;6258605;23;19991;-82
2021/06/12 11:44:47;;;;;;;;;;;33.30;46.20;;;;;;6260712;23;19903;-83
2021/06/12 11:47:24;;;;;;;;;;;32.50;46.30;;;;;;6261393;23;19908;-83
2021/06/12 11:49:50;;;;;;;;;;;31.80;46.30;;;;;;6252914;22;19912;-82
2021/06/12 11:52:16;;;;;;;;;;;31.50;46.90;;;;;;6251250;23;19910;-83
2021/06/12 11:54:41;;;;;;;;;;;31.50;46.40;;;;;;6255239;22;20254;-83
2021/06/12 11:57:07;;;;;;;;;;;31.10;46.60;;;;;;6252515;23;19926;-83
2021/06/12 11:59:34;;;;;;;;;;;30.40;47.10;;;;;;6253079;22;19939;-84
2021/06/12 12:02:09;;;;;;;;;;;29.70;47.70;;;;;;6249219;23;19943;-83
2021/06/12 12:04:35;;;;;;;;;;;29.00;48.30;;;;;;6251182;23;19907;-82
2021/06/12 12:07:16;;;;;;;;;;;28.50;48.70;;;;;;6249708;23;19908;-83
2021/06/12 12:09:46;;;;;;;;;;;29.50;48.50;;;;;;6254059;22;19968;-83
2021/06/12 12:12:17;;;;;;;;;;;30.50;47.20;;;;;;6251512;22;19980;-82
2021/06/12 12:14:43;;;;;;;;;;;30.00;46.70;;;;;;6251838;22;19908;-82
2021/06/12 12:17:35;;;;;;;;;;;29.40;47.20;;;;;;6251835;23;20292;-82
2021/06/12 12:20:05;;;;;;;;;;;28.80;47.50;;;;;;6268970;22;20397;-83
2021/06/12 12:22:35;;;;;;;;;;;28.70;48.20;;;;;;6253564;22;19904;-84
2021/06/12 12:25:00;;;;;;;;;;;28.60;48.10;;;;;;6252399;23;19904;-83
2021/06/12 12:27:26;;;;;;;;;;;29.30;47.70;;;;;;6253026;22;19968;-82
2021/06/12 12:29:51;;;;;;;;;;;29.20;47.40;;;;;;6252063;22;20215;-83
2021/06/12 12:32:23;;;;;;;;;;;29.40;47.70;;;;;;6250975;23;19907;-82
2021/06/12 12:34:54;;;;;;;;;;;29.80;47.10;;;;;;6252534;23;19951;-83
2021/06/12 12:37:21;;;;;;;;;;;29.90;46.90;;;;;;6251288;23;20223;-83
2021/06/12 12:39:47;;;;;;;;;;;29.90;47.00;;;;;;6251256;22;19958;-83
2021/06/12 12:42:17;;;;;;;;;;;30.30;46.80;;;;;;6252572;23;19931;-82
2021/06/12 12:44:44;;;;;;;;;;;31.00;46.00;;;;;;6250100;23;19908;-83
2021/06/12 12:47:10;;;;;;;;;;;31.20;45.50;;;;;;6251873;22;20318;-82
2021/06/12 12:49:40;;;;;;;;;;;31.10;45.10;;;;;;6252617;22;19908;-82
2021/06/12 12:52:16;;;;;;;;;;;30.60;45.30;;;;;;6253196;22;19924;-82
2021/06/12 12:54:54;;;;;;;;;;;30.80;45.40;;;;;;6253537;22;19904;-82
2021/06/12 12:57:22;;;;;;;;;;;31.40;44.70;;;;;;6252272;22;19910;-83
2021/06/12 12:59:55;;;;;;;;;;;31.70;43.90;;;;;;6252580;22;20314;-82
2021/06/12 13:02:20;;;;;;;;;;;31.30;43.80;;;;;;6251752;23;19957;-82
2021/06/12 13:04:56;;;;;;;;;;;30.90;43.20;;;;;;6251853;22;19903;-82
2021/06/12 13:07:22;;;;;;;;;;;30.90;42.40;;;;;;6250762;23;19930;-83
2021/06/12 13:10:11;;;;;;;;;;;31.10;41.50;;;;;;6252989;22;20238;-83
2021/06/12 13:12:37;;;;;;;;;;;31.20;40.60;;;;;;6253569;22;19926;-83
2021/06/12 13:15:10;;;;;;;;;;;31.40;39.80;;;;;;6251418;23;19931;-83
2021/06/12 13:17:43;;;;;;;;;;;31.30;39.20;;;;;;6252705;23;19914;-83
2021/06/12 13:20:10;;;;;;;;;;;30.90;39.50;;;;;;6252561;22;19933;-83
2021/06/12 13:22:39;;;;;;;;;;;30.50;39.50;;;;;;6257334;22;19951;-83
2021/06/12 13:25:16;;;;;;;;;;;30.40;39.40;;;;;;6259364;22;19904;-83
2021/06/12 13:27:47;;;;;;;;;;;30.40;39.30;;;;;;6262286;23;19934;-83
2021/06/12 13:30:29;;;;;;;;;;;;;;;;;;;;;
2021/06/12 13:33:00;;;;;;;;;;;29.40;40.00;;;;;;6250960;23;19974;-83
2021/06/12 13:35:30;;;;;;;;;;;29.00;40.40;;;;;;6249116;23;19957;-83
2021/06/12 13:38:10;;;;;;;;;;;29.10;40.60;;;;;;6250545;23;19904;-83
2021/06/12 13:40:42;;;;;;;;;;;29.10;40.00;;;;;;6255201;23;19904;-84
2021/06/12 13:43:17;;;;;;;;;;;29.30;40.20;;;;;;6253304;23;19904;-83
2021/06/12 13:45:45;;;;;;;;;;;29.50;39.80;;;;;;6254793;22;19907;-83
2021/06/12 13:50:40;;;;;;;;;;;29.20;40.00;;;;;;6251520;23;19924;-83
2021/06/12 13:53:09;;;;;;;;;;;29.20;40.20;;;;;;6253099;23;19927;-83
2021/06/12 13:55:55;;;;;;;;;;;29.20;40.30;;;;;;6252913;23;19993;-83
2021/06/12 13:58:21;;;;;;;;;;;28.90;39.70;;;;;;6251607;22;19926;-82
2021/06/12 14:00:46;;;;;;;;;;;28.50;40.00;;;;;;6253120;22;19903;-83
2021/06/12 14:03:17;;;;;;;;;;;28.40;40.40;;;;;;6251633;23;19904;-83
2021/06/12 14:05:43;;;;;;;;;;;28.30;40.30;;;;;;6252515;23;19960;-83
2021/06/12 14:08:11;;;;;;;;;;;28.00;40.30;;;;;;6250993;22;19958;-82
2021/06/12 14:10:36;;;;;;;;;;;27.90;40.60;;;;;;6252414;22;20245;-83
2021/06/12 14:13:03;;;;;;;;;;;27.80;40.80;;;;;;6250784;23;19931;-82
2021/06/12 14:15:38;;;;;;;;;;;27.90;41.00;;;;;;6254120;22;20309;-83
2021/06/12 14:18:04;;;;;;;;;;;27.90;40.80;;;;;;6253010;22;20253;-83
2021/06/12 14:20:30;;;;;;;;;;;27.80;40.60;;;;;;6251175;22;19910;-83
2021/06/12 14:22:55;;;;;;;;;;;27.70;40.60;;;;;;6250960;22;20352;-83
2021/06/12 14:25:24;;;;;;;;;;;27.40;40.70;;;;;;6250934;23;19925;-84
2021/06/12 14:27:52;;;;;;;;;;;27.30;40.80;;;;;;6252570;23;19908;-83
2021/06/12 14:30:19;;;;;;;;;;;27.50;40.90;;;;;;6248670;22;19931;-83